Time;durP1;ratioP1;P1;durP2;ratioP2;P2;SDS_P1;SDS_P2;PMS_P1;PMS_P2;Temp;Humidity;BMP_temperature;BMP_pressure;BME280_temperature;BME280_humidity;BME280_pressure;Samples;Min_cycle;Max_cycle;Signal;HPM_P1;HPM_P2
2022/11/05 00:19:10;;;;;;;4.80;1.15;;;;;;;10.95;78.07;100069.66;10272116;28;20047;-87
2022/11/05 00:29:32;;;;;;;3.63;1.08;;;;;;;11.20;77.70;100083.66;10274385;28;20055;-86
2022/11/05 00:34:33;;;;;;;6.38;1.75;;;;;;;11.30;77.67;100087.72;10273900;28;20133;-86
2022/11/05 00:39:35;;;;;;;8.43;3.88;;;;;;;11.39;77.42;100090.28;10272822;28;20474;-86
2022/11/05 00:49:57;;;;;;;5.35;2.38;;;;;;;11.43;77.84;100102.34;10280930;28;20256;-87
2022/11/05 00:54:58;;;;;;;7.25;2.33;;;;;;;11.46;77.97;100110.88;10279414;28;20109;-87
2022/11/05 01:00:00;;;;;;;4.80;2.15;;;;;;;11.48;77.90;100113.41;10256046;28;20063;-85
2022/11/05 01:05:02;;;;;;;5.68;2.42;;;;;;;11.48;77.97;100121.47;10271924;28;20043;-85
2022/11/05 01:10:04;;;;;;;8.95;2.45;;;;;;;11.38;78.11;100126.31;10272088;28;20497;-86
2022/11/05 01:15:06;;;;;;;6.43;2.10;;;;;;;11.40;77.75;100135.03;10255804;28;20036;-84
2022/11/05 01:20:09;;;;;;;6.38;1.60;;;;;;;11.35;78.19;100129.38;10259757;28;20046;-85
2022/11/05 01:25:10;;;;;;;3.72;2.05;;;;;;;11.43;78.38;100122.06;10250907;28;20102;-84
2022/11/05 01:30:13;;;;;;;4.28;2.40;;;;;;;11.47;78.38;100126.03;10266071;28;20051;-84
2022/11/05 01:35:16;;;;;;;8.63;3.50;;;;;;;11.49;78.34;100125.81;10266771;28;20047;-84
2022/11/05 01:40:20;;;;;;;6.80;2.70;;;;;;;11.53;77.86;100132.50;10269681;28;20047;-84
2022/11/05 01:45:24;;;;;;;5.28;2.08;;;;;;;11.47;78.12;100136.81;10255959;28;20058;-86
2022/11/05 01:50:30;;;;;;;6.90;2.85;;;;;;;11.50;78.00;100143.66;10268246;28;20075;-87
2022/11/05 01:55:35;;;;;;;7.75;2.70;;;;;;;11.48;77.88;100151.09;10269166;28;20054;-86
2022/11/05 02:00:39;;;;;;;9.38;3.25;;;;;;;11.46;77.89;100155.81;10256298;28;20051;-86
2022/11/05 02:05:42;;;;;;;7.22;2.72;;;;;;;11.45;78.32;100162.22;10262385;28;20051;-86
2022/11/05 02:10:45;;;;;;;9.38;2.80;;;;;;;11.50;78.05;100168.72;10259284;28;20126;-86
2022/11/05 02:16:07;;;;;;;10.98;3.15;;;;;;;11.54;77.69;100169.19;10277264;28;20105;-85
2022/11/05 02:21:33;;;;;;;10.95;3.33;;;;;;;11.55;78.34;100167.31;10263248;28;20054;-85
2022/11/05 02:26:49;;;;;;;7.88;3.38;;;;;;;11.57;77.97;100166.13;10284578;28;20058;-86
2022/11/05 02:31:58;;;;;;;10.93;3.28;;;;;;;11.58;77.83;100165.09;10260970;28;20055;-90
2022/11/05 02:37:13;;;;;;;11.35;4.80;;;;;;;11.62;77.91;100162.88;10285087;28;20047;-86
2022/11/05 02:42:17;;;;;;;14.23;5.97;;;;;;;11.61;78.14;100167.41;10281204;28;20050;-86
2022/11/05 02:47:32;;;;;;;26.73;6.03;;;;;;;11.65;78.07;100165.16;10259172;28;20090;-84
2022/11/05 02:52:52;;;;;;;9.55;3.97;;;;;;;11.63;78.32;100186.06;10265025;28;20050;-84
2022/11/05 02:57:54;;;;;;;12.90;4.93;;;;;;;11.58;78.34;100186.63;10268329;28;20055;-86
2022/11/05 03:02:55;;;;;;;12.68;5.10;;;;;;;11.55;77.99;100192.38;10267340;28;20070;-85
2022/11/05 03:08:09;;;;;;;23.30;7.85;;;;;;;11.43;78.49;100205.50;10274325;28;20678;-85
2022/11/05 03:13:24;;;;;;;17.98;9.55;;;;;;;11.34;78.67;100203.06;10277706;28;20047;-86
2022/11/05 03:18:51;;;;;;;18.58;8.90;;;;;;;11.24;79.13;100201.47;10276431;28;20102;-85
2022/11/05 03:24:01;;;;;;;24.57;10.10;;;;;;;11.20;79.47;100202.03;10269591;28;20057;-85
2022/11/05 03:29:08;;;;;;;27.60;11.63;;;;;;;11.22;79.12;100216.13;10269076;28;20038;-84
2022/11/05 03:34:12;;;;;;;26.38;12.23;;;;;;;11.27;79.28;100219.09;10271313;28;20105;-86
2022/11/05 03:39:21;;;;;;;26.00;11.05;;;;;;;11.18;79.34;100225.59;10271814;28;20059;-85
2022/11/05 03:44:27;;;;;;;25.30;11.68;;;;;;;11.16;79.11;100228.47;10283421;28;20106;-86
2022/11/05 03:49:35;;;;;;;23.83;12.63;;;;;;;11.20;78.91;100235.16;10270656;28;20043;-85
2022/11/05 03:54:37;;;;;;;25.38;13.57;;;;;;;11.29;78.98;100239.44;10262322;28;20042;-85
2022/11/05 03:59:42;;;;;;;31.05;13.23;;;;;;;11.30;78.54;100245.66;10262793;28;20039;-85
2022/11/05 04:04:45;;;;;;;27.38;13.43;;;;;;;11.32;78.53;100246.31;10269643;28;20051;-86
2022/11/05 04:15:08;;;;;;;26.60;13.50;;;;;;;11.23;78.93;100253.59;10278745;28;20042;-84
2022/11/05 04:25:29;;;;;;;28.73;15.30;;;;;;;11.27;78.53;100259.47;10273005;28;20055;-86
2022/11/05 04:30:31;;;;;;;33.03;14.73;;;;;;;11.25;78.18;100256.94;10257604;28;20046;-84
2022/11/05 04:35:44;;;;;;;33.90;15.63;;;;;;;11.17;78.10;100270.47;10276868;28;20043;-85
2022/11/05 04:40:47;;;;;;;31.77;15.27;;;;;;;11.10;78.46;100275.75;10264805;28;20047;-86
2022/11/05 04:45:48;;;;;;;26.33;14.48;;;;;;;11.07;78.27;100284.19;10272432;28;20050;-86
2022/11/05 04:50:50;;;;;;;31.85;13.90;;;;;;;11.08;77.83;100282.34;10270715;28;20493;-87
2022/11/05 04:55:51;;;;;;;21.83;12.70;;;;;;;11.08;78.06;100285.88;10278799;28;20051;-86
2022/11/05 05:00:53;;;;;;;25.60;11.60;;;;;;;11.09;77.90;100294.75;10274135;28;20490;-86
2022/11/05 05:05:59;;;;;;;25.67;12.65;;;;;;;11.13;77.79;100297.94;10255577;28;20364;-86
2022/11/05 05:11:10;;;;;;;25.10;12.95;;;;;;;11.22;77.05;100304.94;10258983;28;20054;-86
2022/11/05 05:16:37;;;;;;;29.98;13.57;;;;;;;11.30;77.44;100307.53;10269270;28;20146;-85
2022/11/05 05:21:39;;;;;;;30.60;16.60;;;;;;;11.39;76.94;100308.28;10258459;28;20051;-86
2022/11/05 05:26:45;;;;;;;35.50;14.68;;;;;;;11.43;76.89;100301.53;10259847;28;20043;-86
2022/11/05 05:31:46;;;;;;;31.60;13.85;;;;;;;11.42;76.94;100307.94;10273636;28;20051;-85
2022/11/05 05:36:48;;;;;;;28.15;13.40;;;;;;;11.41;76.67;100311.63;10271144;28;20053;-90
2022/11/05 05:41:50;;;;;;;27.77;11.25;;;;;;;11.22;76.91;100321.91;10263203;28;20058;-87
2022/11/05 05:46:54;;;;;;;22.38;9.98;;;;;;;11.19;77.16;100322.25;10256600;28;20061;-86
2022/11/05 05:51:56;;;;;;;17.23;7.38;;;;;;;11.11;77.34;100338.47;10272717;28;20051;-87
2022/11/05 05:56:57;;;;;;;12.05;6.45;;;;;;;11.01;77.17;100340.56;10265534;28;20109;-87
2022/11/05 06:01:59;;;;;;;11.95;5.75;;;;;;;10.97;77.40;100347.31;10285160;28;20088;-86
2022/11/05 06:07:01;;;;;;;10.88;5.43;;;;;;;11.02;77.15;100351.16;10279555;28;20046;-87
2022/11/05 06:12:03;;;;;;;10.02;4.85;;;;;;;11.03;77.04;100360.88;10279356;28;20476;-86
2022/11/05 06:17:07;;;;;;;15.75;5.93;;;;;;;11.04;76.84;100364.41;10281552;28;20562;-86
2022/11/05 06:22:09;;;;;;;11.10;5.43;;;;;;;11.01;77.16;100378.22;10263269;28;20073;-84
2022/11/05 06:27:10;;;;;;;13.13;6.00;;;;;;;11.19;76.37;100381.44;10271305;28;20047;-84
2022/11/05 06:32:12;;;;;;;10.25;5.60;;;;;;;11.32;75.89;100386.25;10261916;28;20146;-84
2022/11/05 06:37:13;;;;;;;13.50;6.43;;;;;;;11.46;75.65;100395.38;10269393;28;20125;-83
2022/11/05 06:42:15;;;;;;;19.40;6.93;;;;;;;11.48;75.72;100399.56;10260751;28;20076;-83
2022/11/05 06:47:20;;;;;;;17.40;6.90;;;;;;;11.53;75.83;100407.09;10273590;28;20105;-86
2022/11/05 06:52:21;;;;;;;16.85;6.47;;;;;;;11.57;75.71;100405.72;10277254;28;20050;-85
2022/11/05 06:57:23;;;;;;;17.20;6.63;;;;;;;11.39;76.03;100411.41;10260412;28;20493;-84
2022/11/05 07:02:24;;;;;;;15.95;5.97;;;;;;;11.27;76.15;100432.50;10266912;28;20074;-87
2022/11/05 07:07:26;;;;;;;13.63;6.53;;;;;;;11.31;76.02;100436.53;10257081;28;20109;-85
2022/11/05 07:12:27;;;;;;;12.65;5.63;;;;;;;11.29;75.98;100443.97;10259255;28;20059;-85
2022/11/05 07:17:29;;;;;;;12.63;5.75;;;;;;;11.27;75.62;100450.50;10258952;28;20472;-85
2022/11/05 07:22:31;;;;;;;14.27;5.78;;;;;;;11.16;76.16;100457.16;10273809;28;20057;-85
2022/11/05 07:27:38;;;;;;;9.70;4.47;;;;;;;11.22;75.98;100467.19;10259868;28;20054;-85
2022/11/05 07:32:39;;;;;;;17.77;6.00;;;;;;;11.30;75.58;100477.09;10262768;28;20078;-85
2022/11/05 07:37:46;;;;;;;12.00;4.93;;;;;;;11.43;75.69;100484.56;10274677;28;20129;-84
2022/11/05 07:42:52;;;;;;;12.65;4.85;;;;;;;11.55;75.28;100480.44;10255846;28;20149;-85
2022/11/05 07:47:59;;;;;;;12.68;4.47;;;;;;;11.51;75.06;100500.66;10275338;28;20501;-87
2022/11/05 07:53:06;;;;;;;13.10;4.53;;;;;;;11.52;74.85;100505.03;10264777;28;20030;-85
2022/11/05 07:58:09;;;;;;;13.05;5.55;;;;;;;11.58;74.95;100506.19;10255110;28;20279;-85
2022/11/05 08:03:13;;;;;;;14.65;6.07;;;;;;;11.65;74.11;100510.66;10247318;28;20081;-85
2022/11/05 08:08:17;;;;;;;12.18;5.63;;;;;;;11.59;74.10;100522.16;10273681;28;20046;-85
2022/11/05 08:13:18;;;;;;;14.70;6.78;;;;;;;11.57;74.22;100526.88;10281483;28;20050;-85
2022/11/05 08:18:21;;;;;;;13.73;6.22;;;;;;;11.71;73.53;100525.28;10272364;28;20054;-86
2022/11/05 08:23:23;;;;;;;12.70;6.10;;;;;;;11.76;73.40;100533.63;10279564;28;20062;-84
2022/11/05 08:28:26;;;;;;;12.23;5.05;;;;;;;11.78;73.21;100528.06;10255563;28;20061;-85
2022/11/05 08:33:30;;;;;;;18.15;5.38;;;;;;;11.93;73.20;100538.94;10260027;28;20077;-85
2022/11/05 08:38:31;;;;;;;14.20;4.40;;;;;;;11.90;72.95;100537.44;10282437;28;20050;-85
2022/11/05 08:43:33;;;;;;;12.18;5.22;;;;;;;11.97;72.78;100542.97;10258114;28;20073;-85
2022/11/05 08:48:35;;;;;;;11.50;5.28;;;;;;;12.06;72.45;100548.06;10256499;28;20528;-85
2022/11/05 08:53:36;;;;;;;14.25;5.45;;;;;;;12.27;71.91;100558.19;10259641;28;20465;-87
2022/11/05 08:58:38;;;;;;;10.25;4.35;;;;;;;12.35;71.89;100553.75;10254965;28;20051;-88
2022/11/05 09:03:40;;;;;;;11.52;4.25;;;;;;;12.48;71.47;100552.09;10264146;28;20046;-88
2022/11/05 09:08:42;;;;;;;8.65;3.97;;;;;;;12.66;71.67;100554.44;10259900;28;20046;-89
2022/11/05 09:13:46;;;;;;;10.38;4.10;;;;;;;12.97;70.60;100552.59;10259931;28;20051;-86
2022/11/05 09:18:49;;;;;;;15.27;5.72;;;;;;;13.13;70.88;100546.16;10282986;28;20118;-89
2022/11/05 09:23:50;;;;;;;13.32;5.57;;;;;;;13.32;71.35;100560.97;10333744;23;20042;-61
2022/11/05 09:28:52;;;;;;;13.38;5.63;;;;;;;13.53;71.42;100562.91;10351825;28;20057;-59
2022/11/05 09:33:54;;;;;;;14.18;6.15;;;;;;;13.72;71.21;100558.72;10352112;28;20136;-58
2022/11/05 09:38:55;;;;;;;14.30;7.55;;;;;;;13.93;71.04;100571.44;10354548;28;20137;-58
2022/11/05 09:44:03;;;;;;;11.48;5.60;;;;;;;14.06;70.99;100580.50;10350198;28;20756;-62
2022/11/05 09:49:11;;;;;;;17.33;5.88;;;;;;;14.17;70.16;100587.25;10347638;28;20634;-58
2022/11/05 09:54:14;;;;;;;11.27;4.57;;;;;;;14.33;69.95;100588.84;10350018;28;20046;-59
2022/11/05 09:59:50;;;;;;;10.68;4.22;;;;;;;14.51;69.39;100601.88;10350344;28;20116;-61
2022/11/05 10:04:55;;;;;;;8.07;4.10;;;;;;;14.62;69.22;100608.69;10349133;28;20053;-61
2022/11/05 10:10:01;;;;;;;9.38;4.03;;;;;;;14.85;68.42;100605.75;10351511;28;20046;-61
2022/11/05 10:15:21;;;;;;;10.77;4.53;;;;;;;15.06;67.75;100608.34;10347213;28;20140;-62
2022/11/05 10:20:32;;;;;;;9.10;4.25;;;;;;;15.03;67.63;100607.94;10344814;28;20062;-61
2022/11/05 10:25:40;;;;;;;10.43;4.30;;;;;;;14.98;67.68;100616.63;10342624;28;20050;-62
2022/11/05 10:30:43;;;;;;;14.63;5.80;;;;;;;15.03;67.77;100607.94;10347395;28;20105;-68
2022/11/05 10:35:52;;;;;;;10.82;4.78;;;;;;;15.22;67.06;100614.47;10348411;28;20064;-63
2022/11/05 10:41:07;;;;;;;12.65;6.93;;;;;;;15.15;67.27;100614.44;10346346;28;20120;-63
2022/11/05 10:46:27;;;;;;;15.55;6.78;;;;;;;15.19;67.12;100615.72;10350772;28;20041;-63
2022/11/05 10:51:30;;;;;;;14.25;7.38;;;;;;;15.23;67.24;100621.59;10350245;28;20083;-63
2022/11/05 10:56:35;;;;;;;16.58;6.18;;;;;;;15.48;66.89;100624.59;10353419;28;20375;-63
2022/11/05 11:01:36;;;;;;;11.55;5.45;;;;;;;15.60;67.04;100620.31;10351708;28;20137;-62
2022/11/05 11:06:46;;;;;;;11.25;5.30;;;;;;;15.76;66.48;100627.28;10350545;28;20060;-60
2022/11/05 11:11:59;;;;;;;9.02;4.80;;;;;;;15.98;65.56;100627.13;10353173;28;20149;-60
2022/11/05 11:17:26;;;;;;;10.65;4.72;;;;;;;16.09;65.19;100622.97;10343875;28;20077;-63
2022/11/05 11:22:28;;;;;;;9.40;4.40;;;;;;;16.26;65.35;100621.53;10341983;28;20495;-61
2022/11/05 11:27:33;;;;;;;7.57;3.95;;;;;;;16.48;64.00;100607.78;10345194;28;20141;-62
2022/11/05 11:32:38;;;;;;;11.73;4.05;;;;;;;16.68;63.61;100603.19;10345186;28;20049;-61
2022/11/05 11:37:40;;;;;;;5.95;3.92;;;;;;;16.80;63.10;100601.47;10340687;28;20078;-61
2022/11/05 11:42:48;;;;;;;5.63;3.30;;;;;;;16.85;62.20;100599.00;10346393;28;20054;-63
2022/11/05 11:47:49;;;;;;;10.43;2.72;;;;;;;17.04;61.81;100601.91;10344114;28;20045;-61
2022/11/05 11:52:51;;;;;;;5.32;2.72;;;;;;;17.05;61.56;100601.69;10350862;28;20132;-59
2022/11/05 11:58:05;;;;;;;9.57;2.88;;;;;;;17.15;60.43;100590.38;10351694;28;20121;-62
2022/11/05 12:03:31;;;;;;;7.45;3.22;;;;;;;17.16;60.56;100596.63;10341786;28;20076;-61
2022/11/05 12:08:38;;;;;;;6.38;2.92;;;;;;;17.35;59.95;100590.31;10357710;28;20042;-60
2022/11/05 12:14:01;;;;;;;4.22;1.80;;;;;;;17.39;59.15;100579.84;10343719;28;20072;-61
2022/11/05 12:19:44;;;;;;;4.55;1.27;;;;;;;17.35;59.23;100581.34;10342130;28;20066;-61
2022/11/05 12:24:51;;;;;;;3.92;1.35;;;;;;;17.07;58.99;100579.75;10313733;28;20386;-61
2022/11/05 12:30:01;;;;;;;6.57;1.60;;;;;;;16.53;59.47;100580.84;10304694;28;20070;-60
2022/11/05 12:35:13;;;;;;;5.13;1.63;;;;;;;15.90;59.44;100590.19;10302340;28;20169;-63
2022/11/05 12:40:30;;;;;;;4.22;1.77;;;;;;;15.95;60.01;100584.97;10298926;28;20039;-62
2022/11/05 12:45:49;;;;;;;6.78;2.20;;;;;;;15.84;59.84;100591.00;10301004;28;20129;-63
2022/11/05 12:50:58;;;;;;;4.70;2.13;;;;;;;15.98;59.68;100595.41;10305821;28;20137;-63
2022/11/05 12:56:05;;;;;;;6.20;2.30;;;;;;;15.93;59.55;100592.47;10303732;28;20043;-62
2022/11/05 13:01:16;;;;;;;4.22;1.60;;;;;;;16.00;59.15;100604.19;10301058;28;20108;-61
2022/11/05 13:06:24;;;;;;;3.50;0.98;;;;;;;15.92;59.21;100596.25;10299504;28;20050;-63
2022/11/05 13:11:35;;;;;;;4.85;2.25;;;;;;;15.16;59.65;100607.97;10303665;28;20043;-62
2022/11/05 13:16:41;;;;;;;6.45;2.38;;;;;;;15.30;60.11;100605.34;10298143;28;20046;-63
2022/11/05 13:21:47;;;;;;;7.53;2.00;;;;;;;15.38;59.84;100595.19;10302885;28;20571;-61
2022/11/05 13:26:54;;;;;;;2.25;1.38;;;;;;;15.28;60.02;100602.84;10340042;28;20165;-62
2022/11/05 13:32:01;;;;;;;13.35;2.72;;;;;;;14.91;60.45;100604.09;10343328;28;20046;-60
2022/11/05 13:43:06;;;;;;;0.70;0.50;;;;;;;14.99;59.85;100615.59;10337864;28;20060;-60
2022/11/05 13:48:26;;;;;;;2.15;0.50;;;;;;;14.67;59.35;100611.63;10275082;28;20058;-61
2022/11/05 13:53:45;;;;;;;1.33;0.77;;;;;;;14.60;59.20;100600.75;10340554;28;20052;-61
2022/11/05 13:59:22;;;;;;;2.85;0.50;;;;;;;14.79;59.16;100607.34;10343471;28;20049;-60
2022/11/05 14:04:34;;;;;;;1.30;0.70;;;;;;;14.75;59.91;100603.38;10348048;28;20753;-60
2022/11/05 14:09:38;;;;;;;5.05;1.88;;;;;;;14.70;60.32;100607.69;10346453;28;20580;-60
2022/11/05 14:14:45;;;;;;;3.95;1.27;;;;;;;14.56;60.36;100613.00;10356682;28;20074;-59
2022/11/05 14:20:04;;;;;;;3.47;1.20;;;;;;;14.51;60.92;100606.47;10351787;28;20062;-60
2022/11/05 14:25:18;;;;;;;3.63;0.98;;;;;;;14.67;60.73;100608.91;10389490;28;20435;-59
2022/11/05 14:30:39;;;;;;;5.78;1.95;;;;;;;14.72;60.94;100602.94;10388982;28;20048;-59
2022/11/05 14:35:42;;;;;;;3.40;1.83;;;;;;;14.78;61.30;100602.13;10391599;28;20037;-61
2022/11/05 14:40:44;;;;;;;5.38;1.85;;;;;;;14.70;61.32;100613.13;10392972;28;20048;-60
2022/11/05 14:46:01;;;;;;;4.55;1.88;;;;;;;14.72;61.25;100614.56;10387171;28;20396;-61
2022/11/05 14:51:24;;;;;;;7.70;2.15;;;;;;;14.77;61.32;100609.44;10389567;28;20041;-60
2022/11/05 14:56:26;;;;;;;4.63;1.75;;;;;;;14.82;61.70;100612.34;10388202;28;20164;-60
2022/11/05 15:01:30;;;;;;;6.43;1.90;;;;;;;14.78;61.63;100616.50;10386249;28;20057;-60
2022/11/05 15:06:35;;;;;;;7.13;1.80;;;;;;;14.65;61.62;100610.97;10389079;28;20057;-60
2022/11/05 15:11:55;;;;;;;4.20;1.20;;;;;;;14.53;61.66;100616.06;10384570;28;20080;-61
2022/11/05 15:17:12;;;;;;;4.82;1.15;;;;;;;14.33;61.88;100625.88;10388727;28;20141;-60
2022/11/05 15:22:24;;;;;;;4.07;1.50;;;;;;;14.36;61.81;100615.50;10391664;28;20057;-62
2022/11/05 15:27:49;;;;;;;2.47;0.70;;;;;;;14.25;61.77;100606.03;10396493;28;20050;-61
2022/11/05 15:32:51;;;;;;;1.48;0.60;;;;;;;14.24;61.13;100623.31;10398644;28;20290;-61
2022/11/05 15:37:55;;;;;;;5.07;0.40;;;;;;;13.97;61.55;100624.91;10389860;28;20143;-61
2022/11/05 15:43:16;;;;;;;2.65;0.60;;;;;;;14.03;60.62;100621.41;10388115;28;20046;-61
2022/11/05 15:48:18;;;;;;;6.00;0.93;;;;;;;13.96;60.98;100625.06;10387964;28;20128;-61
2022/11/05 15:53:33;;;;;;;2.85;0.70;;;;;;;13.90;61.05;100621.28;10390446;28;20065;-61
2022/11/05 15:59:02;;;;;;;2.88;0.98;;;;;;;13.78;61.75;100620.09;10383562;28;20408;-61
2022/11/05 16:04:18;;;;;;;4.00;0.70;;;;;;;13.73;61.74;100617.16;10378870;28;20484;-61
2022/11/05 16:09:26;;;;;;;3.83;0.65;;;;;;;13.63;62.38;100618.28;10382938;28;20046;-61
2022/11/05 16:14:34;;;;;;;3.75;0.75;;;;;;;13.58;62.34;100615.28;10379021;28;20124;-62
2022/11/05 16:19:38;;;;;;;2.97;0.90;;;;;;;13.64;62.26;100619.09;10366744;28;20049;-62
2022/11/05 16:24:42;;;;;;;7.05;1.52;;;;;;;13.55;62.67;100625.66;10386889;28;20049;-62
2022/11/05 16:29:54;;;;;;;4.22;1.08;;;;;;;13.41;62.67;100621.97;10389412;28;20046;-61
2022/11/05 16:35:01;;;;;;;5.03;0.77;;;;;;;13.29;62.96;100626.97;10390016;28;20041;-62
2022/11/05 16:40:14;;;;;;;5.73;1.80;;;;;;;13.12;63.23;100629.00;10371995;28;20115;-62
2022/11/05 16:45:17;;;;;;;6.43;1.88;;;;;;;12.96;63.94;100631.88;10396889;28;20579;-62
2022/11/05 16:50:30;;;;;;;8.07;2.17;;;;;;;12.89;64.06;100648.81;10392527;28;20041;-62
2022/11/05 16:55:35;;;;;;;6.75;2.28;;;;;;;12.76;64.07;100664.78;10390713;28;20128;-61
2022/11/05 17:00:37;;;;;;;8.00;2.83;;;;;;;12.55;64.68;100683.50;10395179;28;20140;-61
2022/11/05 17:05:39;;;;;;;5.22;2.15;;;;;;;12.45;65.05;100687.28;10384422;28;20448;-62
2022/11/05 17:10:40;;;;;;;7.20;2.10;;;;;;;12.39;64.94;100700.63;10382238;28;20120;-61
2022/11/05 17:15:44;;;;;;;5.30;2.67;;;;;;;12.31;65.48;100696.13;10385178;28;20061;-61
2022/11/05 17:20:51;;;;;;;9.32;2.45;;;;;;;12.17;65.86;100700.44;10384396;28;20133;-63
2022/11/05 17:25:54;;;;;;;6.00;2.80;;;;;;;12.02;66.00;100691.44;10385778;28;20124;-63
2022/11/05 17:31:01;;;;;;;8.05;3.25;;;;;;;11.95;66.17;100698.53;10378866;28;20125;-62
2022/11/05 17:36:07;;;;;;;3.72;2.50;;;;;;;11.79;66.69;100704.81;10382974;28;20132;-61
2022/11/05 17:41:11;;;;;;;6.10;3.00;;;;;;;11.70;66.62;100702.16;10388790;28;20120;-62
2022/11/05 17:46:15;;;;;;;7.05;2.72;;;;;;;11.61;66.97;100705.03;10389817;28;20076;-61
2022/11/05 17:51:18;;;;;;;7.13;3.42;;;;;;;11.44;67.31;100713.19;10395939;28;20092;-62
2022/11/05 17:56:20;;;;;;;9.73;3.65;;;;;;;11.39;67.46;100718.25;10393045;28;20117;-61
2022/11/05 18:01:41;;;;;;;10.38;4.35;;;;;;;11.40;67.68;100711.84;10391949;28;20037;-63
2022/11/05 18:06:43;;;;;;;12.90;5.70;;;;;;;11.30;68.03;100716.59;10393916;28;20049;-63
2022/11/05 18:11:45;;;;;;;13.98;6.50;;;;;;;11.18;68.51;100710.72;10394827;28;20116;-62
2022/11/05 18:16:47;;;;;;;13.55;6.05;;;;;;;11.19;68.27;100715.09;10395087;28;20046;-62
2022/11/05 18:21:48;;;;;;;17.00;7.80;;;;;;;11.16;68.37;100731.59;10380003;28;20140;-62
2022/11/05 18:26:50;;;;;;;16.75;7.18;;;;;;;11.17;68.60;100729.72;10397516;28;20407;-62
2022/11/05 18:31:51;;;;;;;17.90;7.53;;;;;;;11.21;68.25;100753.44;10387878;28;20133;-63
2022/11/05 18:36:53;;;;;;;13.63;7.82;;;;;;;11.10;68.88;100749.25;10388854;28;20076;-63
2022/11/05 18:41:57;;;;;;;16.02;7.68;;;;;;;11.04;68.83;100749.94;10391725;28;20068;-64
2022/11/05 18:46:58;;;;;;;15.68;8.07;;;;;;;11.05;68.91;100762.34;10385352;28;20046;-65
2022/11/05 18:51:59;;;;;;;17.58;8.98;;;;;;;10.99;69.01;100754.97;10391166;28;20056;-61
2022/11/05 18:57:01;;;;;;;14.38;8.40;;;;;;;10.94;68.73;100753.78;10375225;28;20137;-62
2022/11/05 19:02:02;;;;;;;17.48;8.88;;;;;;;10.97;68.76;100750.78;10396449;28;20053;-61
2022/11/05 19:07:05;;;;;;;18.70;8.60;;;;;;;10.92;69.00;100748.59;10389531;28;20053;-60
2022/11/05 19:12:07;;;;;;;17.45;8.40;;;;;;;10.83;69.39;100758.50;10395015;28;20076;-60
2022/11/05 19:17:09;;;;;;;16.60;8.98;;;;;;;10.85;69.18;100755.66;10395158;28;20148;-60
2022/11/05 19:22:10;;;;;;;17.65;8.93;;;;;;;10.82;69.20;100750.59;10394770;28;20088;-63
2022/11/05 19:27:12;;;;;;;16.17;7.22;;;;;;;10.80;68.88;100756.16;10385667;28;20072;-62
2022/11/05 19:32:13;;;;;;;16.65;8.00;;;;;;;10.75;69.13;100749.59;10396340;28;20138;-63
2022/11/05 19:37:15;;;;;;;19.20;9.00;;;;;;;10.76;69.36;100748.56;10395200;28;20145;-62
2022/11/05 19:42:16;;;;;;;20.80;8.07;;;;;;;10.68;69.17;100747.59;10390343;28;20037;-62
2022/11/05 19:47:17;;;;;;;16.90;8.05;;;;;;;10.58;69.52;100749.56;10397647;28;20145;-64
2022/11/05 19:52:19;;;;;;;18.83;8.35;;;;;;;10.59;69.35;100739.69;10392284;28;20056;-63
2022/11/05 19:57:20;;;;;;;13.00;7.57;;;;;;;10.57;69.54;100736.31;10388812;28;20123;-64
2022/11/05 20:02:22;;;;;;;16.92;8.38;;;;;;;10.54;69.25;100750.91;10393046;28;20042;-65
2022/11/05 20:07:23;;;;;;;15.10;8.05;;;;;;;10.49;69.38;100746.03;10384190;28;20634;-62
2022/11/05 20:12:25;;;;;;;15.25;8.18;;;;;;;10.47;69.59;100748.06;10393341;28;20049;-62
2022/11/05 20:17:26;;;;;;;18.38;9.65;;;;;;;10.56;69.26;100751.56;10388966;28;20140;-62
2022/11/05 20:22:28;;;;;;;13.25;8.18;;;;;;;10.58;69.36;100759.47;10385897;28;20119;-62
2022/11/05 20:27:29;;;;;;;17.65;9.23;;;;;;;10.46;69.27;100754.41;10390179;28;20136;-64
2022/11/05 20:32:30;;;;;;;18.58;8.57;;;;;;;10.38;69.54;100762.47;10393512;28;20124;-62
2022/11/05 20:37:32;;;;;;;20.33;10.65;;;;;;;10.38;69.51;100761.63;10387579;28;20073;-64
2022/11/05 20:42:35;;;;;;;19.48;8.52;;;;;;;10.28;69.68;100765.25;10386205;28;20062;-62
2022/11/05 20:47:36;;;;;;;17.77;9.75;;;;;;;10.20;69.99;100767.94;10389078;28;20421;-64
2022/11/05 20:52:37;;;;;;;15.23;8.63;;;;;;;10.11;70.05;100767.06;10387244;28;20141;-64
2022/11/05 20:57:39;;;;;;;18.02;8.77;;;;;;;10.16;70.16;100773.81;10383320;28;20068;-64
2022/11/05 21:02:40;;;;;;;15.82;8.85;;;;;;;10.16;69.98;100769.25;10381091;28;20188;-65
2022/11/05 21:07:43;;;;;;;15.60;8.25;;;;;;;10.14;70.13;100763.22;10385370;28;20072;-61
2022/11/05 21:12:44;;;;;;;23.67;10.98;;;;;;;10.24;69.79;100763.91;10394450;28;20140;-62
2022/11/05 21:17:45;;;;;;;15.15;8.50;;;;;;;10.26;69.78;100761.06;10388543;28;20080;-63
2022/11/05 21:22:47;;;;;;;16.42;8.57;;;;;;;10.30;69.78;100767.81;10403417;28;20072;-62
2022/11/05 21:27:48;;;;;;;13.80;8.63;;;;;;;10.27;70.00;100766.28;10406135;28;20136;-61
2022/11/05 21:32:50;;;;;;;18.58;8.82;;;;;;;10.31;69.71;100766.84;10404319;28;20113;-62
2022/11/05 21:37:52;;;;;;;13.68;8.20;;;;;;;10.28;69.94;100759.06;10402791;28;20504;-62
2022/11/05 21:42:53;;;;;;;14.45;7.13;;;;;;;10.39;69.70;100758.78;10385190;28;20499;-63
2022/11/05 21:47:55;;;;;;;14.75;7.38;;;;;;;10.34;70.11;100766.50;10401860;28;20041;-62
2022/11/05 22:03:37;;;;;;;17.80;6.95;;;;;;;10.35;70.07;100762.81;10402626;28;20133;-61
2022/11/05 22:08:38;;;;;;;12.85;6.28;;;;;;;10.44;69.43;100761.81;10386522;28;20073;-66
2022/11/05 22:13:40;;;;;;;11.77;6.35;;;;;;;10.43;69.74;100768.19;10391579;28;20141;-63
2022/11/05 22:18:41;;;;;;;17.00;7.55;;;;;;;10.37;69.81;100774.25;10400343;28;20137;-65
2022/11/05 22:23:42;;;;;;;14.35;7.18;;;;;;;10.32;70.03;100780.09;10394721;28;20057;-62
2022/11/05 22:28:44;;;;;;;15.15;7.15;;;;;;;10.36;69.94;100777.91;10394126;28;20073;-63
2022/11/05 22:33:45;;;;;;;12.98;7.60;;;;;;;10.39;69.71;100763.34;10379963;28;20427;-66
2022/11/05 22:38:47;;;;;;;15.65;8.38;;;;;;;10.33;69.74;100762.13;10388405;28;20070;-62
2022/11/05 22:43:48;;;;;;;16.73;9.48;;;;;;;10.35;70.02;100773.56;10389634;28;20077;-61
2022/11/05 22:48:51;;;;;;;19.67;8.85;;;;;;;10.30;69.95;100768.66;10392533;28;20112;-62
2022/11/05 22:53:53;;;;;;;17.92;9.05;;;;;;;10.31;70.17;100774.91;10391864;28;20141;-64
2022/11/05 22:58:55;;;;;;;20.20;9.48;;;;;;;10.20;70.25;100770.63;10389082;28;20141;-63
2022/11/05 23:03:57;;;;;;;16.60;10.50;;;;;;;10.25;70.06;100770.97;10382341;28;20046;-62
2022/11/05 23:14:19;;;;;;;17.98;9.80;;;;;;;10.20;70.57;100757.19;10387200;28;20440;-64
2022/11/05 23:24:41;;;;;;;17.45;9.15;;;;;;;10.22;70.22;100752.50;10387169;28;20448;-62
2022/11/05 23:29:43;;;;;;;16.98;8.70;;;;;;;10.20;70.44;100743.75;10391381;28;20498;-62
2022/11/05 23:34:44;;;;;;;17.83;9.30;;;;;;;10.22;70.28;100730.16;10385672;28;20543;-62
2022/11/05 23:39:45;;;;;;;18.70;8.80;;;;;;;10.26;70.17;100735.03;10383511;28;20133;-65
2022/11/05 23:50:13;;;;;;;16.90;7.90;;;;;;;10.13;70.51;100746.25;10369027;28;20047;-63
2022/11/05 23:55:14;;;;;;;16.70;8.35;;;;;;;10.04;70.75;100733.81;10387592;28;20129;-63
